createdAt,value
2023-02-28T00:01:28.462Z,3.60
2023-02-28T00:03:57.941Z,3.60
2023-02-28T00:06:26.096Z,3.60
2023-02-28T00:08:54.065Z,3.60
2023-02-28T00:11:23.674Z,3.60
2023-02-28T00:13:51.538Z,3.60
2023-02-28T00:16:22.190Z,3.60
2023-02-28T00:18:50.890Z,3.60
2023-02-28T00:21:21.164Z,3.60
2023-02-28T00:23:49.224Z,3.50
2023-02-28T00:26:17.101Z,3.50
2023-02-28T00:28:47.261Z,3.60
2023-02-28T00:31:15.319Z,3.60
2023-02-28T00:33:43.343Z,3.60
2023-02-28T00:36:13.079Z,3.60
2023-02-28T00:38:43.173Z,3.60
2023-02-28T00:41:11.535Z,3.60
2023-02-28T00:43:40.482Z,3.60
2023-02-28T00:46:09.428Z,3.50
2023-02-28T00:48:38.603Z,3.50
2023-02-28T00:51:06.854Z,3.40
2023-02-28T00:53:34.721Z,3.40
2023-02-28T00:56:04.041Z,3.30
2023-02-28T00:58:34.107Z,3.30
2023-02-28T01:01:02.287Z,3.20
2023-02-28T01:03:30.125Z,3.30
2023-02-28T01:05:58.448Z,3.20
2023-02-28T01:08:26.799Z,3.20
2023-02-28T01:10:54.689Z,3.20
2023-02-28T01:13:26.319Z,3.20
2023-02-28T01:15:57.186Z,3.20
2023-02-28T01:18:26.566Z,3.20
2023-02-28T01:20:54.582Z,3.20
2023-02-28T01:23:24.442Z,3.20
2023-02-28T01:25:53.028Z,3.20
2023-02-28T01:28:20.998Z,3.20
2023-02-28T01:30:51.632Z,3.10
2023-02-28T01:33:19.626Z,3.20
2023-02-28T01:35:47.443Z,3.10
2023-02-28T01:38:22.164Z,3.10
2023-02-28T01:40:51.711Z,3.10
2023-02-28T01:43:23.215Z,3.00
2023-02-28T01:45:52.730Z,3.00
2023-02-28T01:48:22.975Z,3.00
2023-02-28T01:50:51.621Z,2.90
2023-02-28T01:53:25.509Z,2.90
2023-02-28T01:55:55.487Z,2.80
2023-02-28T01:58:23.597Z,2.70
2023-02-28T02:00:53.199Z,2.70
2023-02-28T02:03:22.816Z,2.70
2023-02-28T02:05:50.824Z,2.70
2023-02-28T02:08:21.689Z,2.70
2023-02-28T02:10:54.242Z,2.70
2023-02-28T02:13:44.772Z,2.70
2023-02-28T02:16:28.348Z,2.70
2023-02-28T02:19:04.395Z,2.80
2023-02-28T02:22:04.723Z,2.70
2023-02-28T02:25:11.747Z,2.60
2023-02-28T02:28:07.070Z,2.60
2023-02-28T02:31:15.096Z,2.50
2023-02-28T02:34:11.215Z,2.40
2023-02-28T02:36:46.983Z,2.40
2023-02-28T02:39:19.959Z,2.40
2023-02-28T02:41:53.047Z,2.30
2023-02-28T02:44:24.654Z,2.30
2023-02-28T02:46:55.762Z,2.20
2023-02-28T02:49:29.098Z,2.10
2023-02-28T02:51:58.553Z,2.10
2023-02-28T02:54:30.530Z,2.00
2023-02-28T02:57:01.314Z,1.90
2023-02-28T02:59:30.777Z,1.90
2023-02-28T03:02:03.467Z,1.80
2023-02-28T03:04:40.123Z,1.70
2023-02-28T03:07:08.076Z,1.70
2023-02-28T03:09:37.406Z,1.60
2023-02-28T03:12:13.840Z,1.50
2023-02-28T03:14:57.692Z,1.30
2023-02-28T03:17:48.397Z,1.20
2023-02-28T03:20:29.430Z,1.30
2023-02-28T03:23:10.152Z,1.30
2023-02-28T03:25:44.595Z,1.30
2023-02-28T03:28:20.166Z,1.20
2023-02-28T03:30:54.609Z,1.10
2023-02-28T03:33:26.497Z,1.10
2023-02-28T03:36:00.271Z,1.10
2023-02-28T03:38:35.729Z,1.00
2023-02-28T03:41:11.498Z,1.00
2023-02-28T03:43:44.813Z,0.90
2023-02-28T03:46:22.114Z,0.90
2023-02-28T03:48:54.982Z,0.90
2023-02-28T03:51:26.809Z,0.90
2023-02-28T03:53:59.691Z,0.80
2023-02-28T03:56:33.138Z,0.80
2023-02-28T03:59:06.720Z,0.80
2023-02-28T04:01:39.529Z,0.80
2023-02-28T04:04:07.526Z,0.70
2023-02-28T04:06:37.175Z,0.60
2023-02-28T04:09:06.440Z,0.60
2023-02-28T04:11:36.701Z,0.60
2023-02-28T04:14:05.199Z,0.50
2023-02-28T04:16:35.932Z,0.50
2023-02-28T04:19:06.209Z,0.40
2023-02-28T04:21:37.376Z,0.40
2023-02-28T04:24:06.816Z,0.40
2023-02-28T04:26:36.060Z,0.40
2023-02-28T04:29:06.105Z,0.40
2023-02-28T04:31:34.057Z,0.40
2023-02-28T04:34:02.272Z,0.40
2023-02-28T04:36:30.819Z,0.30
2023-02-28T04:39:00.045Z,0.30
2023-02-28T04:41:30.311Z,0.30
2023-02-28T04:44:00.358Z,0.20
2023-02-28T04:46:28.161Z,0.10
2023-02-28T04:48:56.223Z,0.10
2023-02-28T04:51:24.416Z,0.10
2023-02-28T04:53:52.285Z,0.10
2023-02-28T04:56:21.478Z,0.10
2023-02-28T04:58:49.968Z,0.10
2023-02-28T05:01:21.162Z,0.10
2023-02-28T05:03:49.784Z,0.00
2023-02-28T05:06:18.500Z,0.00
2023-02-28T05:08:46.540Z,0.00
2023-02-28T05:11:23.080Z,-0.10
2023-02-28T05:13:51.746Z,-0.10
2023-02-28T05:16:19.754Z,-0.10
2023-02-28T05:18:48.374Z,-0.20
2023-02-28T05:21:31.734Z,-0.20
2023-02-28T05:24:03.044Z,-0.20
2023-02-28T05:26:33.177Z,-0.30
2023-02-28T05:29:01.013Z,-0.30
2023-02-28T05:31:29.256Z,-0.30
2023-02-28T05:33:57.264Z,-0.30
2023-02-28T05:36:25.598Z,-0.40
2023-02-28T05:38:53.889Z,-0.40
2023-02-28T05:41:22.154Z,-0.40
2023-02-28T05:43:51.785Z,-0.40
2023-02-28T05:46:19.729Z,-0.40
2023-02-28T05:48:50.001Z,-0.40
2023-02-28T05:51:18.900Z,-0.50
2023-02-28T05:53:46.701Z,-0.50
2023-02-28T05:56:14.550Z,-0.50
2023-02-28T05:58:42.378Z,-0.60
2023-02-28T06:01:28.503Z,-0.50
2023-02-28T06:03:56.547Z,-0.60
2023-02-28T06:06:24.369Z,-0.60
2023-02-28T06:08:52.996Z,-0.60
2023-02-28T06:11:21.310Z,-0.70
2023-02-28T06:13:49.460Z,-0.70
2023-02-28T06:16:17.450Z,-0.70
2023-02-28T06:18:46.701Z,-0.80
2023-02-28T06:21:14.669Z,-0.70
2023-02-28T06:23:42.523Z,-0.70
2023-02-28T06:26:10.384Z,-0.70
2023-02-28T06:28:38.284Z,-0.70
2023-02-28T06:31:10.230Z,-0.70
2023-02-28T06:33:38.569Z,-0.70
2023-02-28T06:36:09.202Z,-0.70
2023-02-28T06:38:37.945Z,-0.70
2023-02-28T06:41:06.806Z,-0.60
2023-02-28T06:43:38.164Z,-0.60
2023-02-28T06:46:09.018Z,-0.60
2023-02-28T06:48:37.371Z,-0.50
2023-02-28T06:51:08.938Z,-0.50
2023-02-28T06:53:37.323Z,-0.50
2023-02-28T06:56:07.531Z,-0.50
2023-02-28T06:58:35.731Z,-0.50
2023-02-28T07:01:04.651Z,-0.40
2023-02-28T07:03:34.469Z,-0.40
2023-02-28T07:06:02.794Z,-0.40
2023-02-28T07:08:32.951Z,-0.40
2023-02-28T07:11:01.026Z,-0.30
2023-02-28T07:13:28.903Z,-0.30
2023-02-28T07:15:58.089Z,-0.30
2023-02-28T07:18:26.669Z,-0.20
2023-02-28T07:20:55.368Z,-0.20
2023-02-28T07:23:24.096Z,-0.10
2023-02-28T07:25:54.007Z,-0.10
2023-02-28T07:28:21.996Z,0.00
2023-02-28T07:30:49.849Z,-0.10
2023-02-28T07:33:18.282Z,0.00
2023-02-28T07:35:46.357Z,0.00
2023-02-28T07:38:14.651Z,0.00
2023-02-28T07:40:42.699Z,0.10
2023-02-28T07:43:11.974Z,0.20
2023-02-28T07:45:39.902Z,0.20
2023-02-28T07:48:07.829Z,0.30
2023-02-28T07:50:35.924Z,0.50
2023-02-28T07:53:03.883Z,0.60
2023-02-28T07:55:31.741Z,0.70
2023-02-28T07:57:59.798Z,0.80
2023-02-28T08:00:29.970Z,1.00
2023-02-28T08:02:57.885Z,1.10
2023-02-28T08:05:25.664Z,1.30
2023-02-28T08:07:54.305Z,1.60
2023-02-28T08:10:22.144Z,1.70
2023-02-28T08:12:50.046Z,1.90
2023-02-28T08:15:17.971Z,2.20
2023-02-28T08:17:47.136Z,2.40
2023-02-28T08:20:15.061Z,2.50
2023-02-28T08:22:45.853Z,2.70
2023-02-28T08:25:13.968Z,2.80
2023-02-28T08:27:41.910Z,3.00
2023-02-28T08:30:12.604Z,3.20
2023-02-28T08:32:42.246Z,3.30
2023-02-28T08:35:12.180Z,3.50
2023-02-28T08:37:40.337Z,3.60
2023-02-28T08:40:09.758Z,3.80
2023-02-28T08:42:38.193Z,3.90
2023-02-28T08:45:07.038Z,4.10
2023-02-28T08:47:34.891Z,4.20
2023-02-28T08:50:02.711Z,4.40
2023-02-28T08:52:31.926Z,4.50
2023-02-28T08:55:00.097Z,4.70
2023-02-28T08:57:28.343Z,4.90
2023-02-28T08:59:56.254Z,5.00
2023-02-28T09:02:24.278Z,5.00
2023-02-28T09:04:52.202Z,5.00
2023-02-28T09:07:20.365Z,5.10
2023-02-28T09:09:55.733Z,5.10
2023-02-28T09:12:24.310Z,5.00
2023-02-28T09:14:52.876Z,5.10
2023-02-28T09:17:21.517Z,5.40
2023-02-28T09:19:50.843Z,5.80
2023-02-28T09:22:18.772Z,6.10
2023-02-28T09:24:46.647Z,6.10
2023-02-28T09:27:15.956Z,6.10
2023-02-28T09:29:43.830Z,6.00
2023-02-28T09:32:11.963Z,5.90
2023-02-28T09:34:40.312Z,5.80
2023-02-28T09:37:08.448Z,5.80
2023-02-28T09:39:36.478Z,5.90
2023-02-28T09:42:05.883Z,5.90
2023-02-28T09:44:39.520Z,6.00
2023-02-28T09:47:14.285Z,6.10
2023-02-28T09:49:44.783Z,6.60
2023-02-28T09:52:17.006Z,6.90
2023-02-28T09:54:45.214Z,7.00
2023-02-28T09:57:20.595Z,7.10
2023-02-28T10:00:01.988Z,7.10
2023-02-28T10:03:05.645Z,7.10
2023-02-28T10:05:38.529Z,7.20
2023-02-28T10:08:13.691Z,7.40
2023-02-28T10:10:45.318Z,7.20
2023-02-28T10:13:25.917Z,7.10
2023-02-28T10:16:00.661Z,7.10
2023-02-28T10:18:36.610Z,7.30
2023-02-28T10:21:05.324Z,7.30
2023-02-28T10:23:37.487Z,7.40
2023-02-28T10:26:13.700Z,7.70
2023-02-28T10:28:42.243Z,7.70
2023-02-28T10:31:16.422Z,7.70
2023-02-28T10:33:44.813Z,7.70
2023-02-28T10:36:17.470Z,7.90
2023-02-28T10:38:46.862Z,8.10
2023-02-28T10:41:17.609Z,8.20
2023-02-28T10:43:46.826Z,8.30
2023-02-28T10:46:26.478Z,8.50
2023-02-28T10:49:05.189Z,8.30
2023-02-28T10:51:40.826Z,8.00
2023-02-28T10:54:17.726Z,7.90
2023-02-28T10:56:47.221Z,7.90
2023-02-28T10:59:32.807Z,7.90
2023-02-28T11:02:02.037Z,7.70
2023-02-28T11:04:40.145Z,7.60
2023-02-28T11:07:20.748Z,7.60
2023-02-28T11:09:52.021Z,7.30
2023-02-28T11:12:24.315Z,7.40
2023-02-28T11:14:55.443Z,7.40
2023-02-28T11:17:27.835Z,7.40
2023-02-28T11:19:59.014Z,7.60
2023-02-28T11:22:30.050Z,7.60
2023-02-28T11:25:01.460Z,7.90
2023-02-28T11:27:50.952Z,7.90
2023-02-28T11:30:38.033Z,7.80
2023-02-28T11:33:25.080Z,7.90
2023-02-28T11:35:54.489Z,8.10
2023-02-28T11:38:22.410Z,8.00
2023-02-28T11:41:02.914Z,8.10
2023-02-28T11:43:45.932Z,8.20
2023-02-28T11:46:25.978Z,8.20
2023-02-28T11:49:04.479Z,7.90
2023-02-28T11:51:36.321Z,7.60
2023-02-28T11:54:23.138Z,7.60
2023-02-28T11:56:56.023Z,7.80
2023-02-28T11:59:53.293Z,8.00
2023-02-28T12:02:31.665Z,8.10
2023-02-28T12:05:17.489Z,8.20
2023-02-28T12:07:52.884Z,8.10
2023-02-28T12:10:25.387Z,8.10
2023-02-28T12:13:09.127Z,8.00
2023-02-28T12:15:53.766Z,8.00
2023-02-28T12:18:50.111Z,8.10
2023-02-28T12:21:29.473Z,8.00
2023-02-28T12:24:14.701Z,8.00
2023-02-28T12:26:44.705Z,7.80
2023-02-28T12:29:18.637Z,7.70
2023-02-28T12:31:51.651Z,7.70
2023-02-28T12:34:23.382Z,7.60
2023-02-28T12:36:55.877Z,7.50
2023-02-28T12:39:28.136Z,7.60
2023-02-28T12:42:00.741Z,7.50
2023-02-28T12:44:34.404Z,7.60
2023-02-28T12:47:06.361Z,7.70
2023-02-28T12:49:39.770Z,7.80
2023-02-28T12:52:12.012Z,7.40
2023-02-28T12:54:49.424Z,7.30
2023-02-28T12:57:24.824Z,7.50
2023-02-28T12:59:56.690Z,7.40
2023-02-28T13:03:13.008Z,7.30
2023-02-28T13:06:10.740Z,7.50
2023-02-28T13:09:01.769Z,7.60
2023-02-28T13:11:33.275Z,7.80
2023-02-28T13:14:03.818Z,7.60
2023-02-28T13:16:56.516Z,7.60
2023-02-28T13:19:27.029Z,7.80
2023-02-28T13:21:55.536Z,7.60
2023-02-28T13:27:35.967Z,7.50
2023-02-28T13:30:42.472Z,7.50
2023-02-28T13:33:29.685Z,7.60
2023-02-28T13:36:26.740Z,7.60
2023-02-28T13:38:56.389Z,7.60
2023-02-28T13:41:46.367Z,7.70
2023-02-28T13:44:16.686Z,7.70
2023-02-28T13:47:22.730Z,7.70
2023-02-28T13:49:53.871Z,7.80
2023-02-28T13:52:25.341Z,7.90
2023-02-28T13:55:29.292Z,7.70
2023-02-28T13:58:13.619Z,7.60
2023-02-28T14:01:02.763Z,7.50
2023-02-28T14:03:54.149Z,7.60
2023-02-28T14:06:31.082Z,7.70
2023-02-28T14:09:02.042Z,7.70
2023-02-28T14:11:33.664Z,7.80
2023-02-28T14:14:02.870Z,7.90
2023-02-28T14:16:40.230Z,8.00
2023-02-28T14:19:14.909Z,7.90
2023-02-28T14:22:01.148Z,7.80
2023-02-28T14:24:53.615Z,7.70
2023-02-28T14:27:42.773Z,7.60
2023-02-28T14:30:47.333Z,7.60
2023-02-28T14:33:28.288Z,7.60
2023-02-28T14:36:06.442Z,7.60
2023-02-28T14:38:43.783Z,7.60
2023-02-28T14:41:20.602Z,7.70
2023-02-28T14:43:54.976Z,7.80
2023-02-28T14:46:24.366Z,7.80
2023-02-28T14:48:52.813Z,7.80
2023-02-28T14:51:23.196Z,7.80
2023-02-28T14:53:58.120Z,7.80
2023-02-28T14:56:30.762Z,7.80
2023-02-28T14:58:59.081Z,7.90
2023-02-28T15:01:27.878Z,7.90
2023-02-28T15:04:04.659Z,7.80
2023-02-28T15:06:34.230Z,7.80
2023-02-28T15:09:16.875Z,7.70
2023-02-28T15:11:49.162Z,7.70
2023-02-28T15:14:23.262Z,7.70
2023-02-28T15:16:58.129Z,7.70
2023-02-28T15:19:30.481Z,7.70
2023-02-28T15:22:01.840Z,7.60
2023-02-28T15:24:40.103Z,7.60
2023-02-28T15:27:14.306Z,7.50
2023-02-28T15:29:51.715Z,7.50
2023-02-28T15:32:29.353Z,7.50
2023-02-28T15:34:58.652Z,7.50
2023-02-28T15:37:32.027Z,7.50
2023-02-28T15:40:14.920Z,7.50
2023-02-28T15:42:44.675Z,7.50
2023-02-28T15:45:38.412Z,7.40
2023-02-28T15:48:14.090Z,7.30
2023-02-28T15:50:42.922Z,7.30
2023-02-28T15:53:15.822Z,7.30
2023-02-28T15:55:45.495Z,7.20
2023-02-28T15:58:14.770Z,7.10
2023-02-28T16:00:50.318Z,7.10
2023-02-28T16:03:41.628Z,7.00
2023-02-28T16:06:32.695Z,7.00
2023-02-28T16:09:00.827Z,6.90
2023-02-28T16:11:31.567Z,6.80
2023-02-28T16:13:59.804Z,6.70
2023-02-28T16:16:28.450Z,6.70
2023-02-28T16:18:56.707Z,6.70
2023-02-28T16:21:25.219Z,6.70
2023-02-28T16:23:53.038Z,6.50
2023-02-28T16:26:25.187Z,6.50
2023-02-28T16:28:55.140Z,6.40
2023-02-28T16:31:23.182Z,6.30
2023-02-28T16:33:50.984Z,6.40
2023-02-28T16:36:20.241Z,6.30
2023-02-28T16:38:48.147Z,6.20
2023-02-28T16:41:20.724Z,6.10
2023-02-28T16:43:50.539Z,5.90
2023-02-28T16:46:20.648Z,5.80
2023-02-28T16:48:52.033Z,5.70
2023-02-28T16:51:20.412Z,5.50
2023-02-28T16:53:48.444Z,5.40
2023-02-28T16:56:20.210Z,5.30
2023-02-28T16:58:49.403Z,5.30
2023-02-28T17:01:22.558Z,5.20
2023-02-28T17:03:50.791Z,5.10
2023-02-28T17:06:22.861Z,5.00
2023-02-28T17:08:51.132Z,4.80
2023-02-28T17:11:19.380Z,4.80
2023-02-28T17:13:48.309Z,4.70
2023-02-28T17:16:24.330Z,4.50
2023-02-28T17:18:52.743Z,4.40
2023-02-28T17:21:20.626Z,4.30
2023-02-28T17:23:48.472Z,4.30
2023-02-28T17:26:18.516Z,4.20
2023-02-28T17:28:46.488Z,4.10
2023-02-28T17:31:14.863Z,4.00
2023-02-28T17:33:44.189Z,3.90
2023-02-28T17:36:15.656Z,3.80
2023-02-28T17:38:44.258Z,3.70
2023-02-28T17:41:12.765Z,3.70
2023-02-28T17:43:40.685Z,3.60
2023-02-28T17:46:15.764Z,3.50
2023-02-28T17:48:44.941Z,3.40
2023-02-28T17:51:14.378Z,3.40
2023-02-28T17:53:42.567Z,3.30
2023-02-28T17:56:15.197Z,3.20
2023-02-28T17:58:43.150Z,3.20
2023-02-28T18:01:12.780Z,3.10
2023-02-28T18:03:41.207Z,3.00
2023-02-28T18:06:18.132Z,2.90
2023-02-28T18:08:46.020Z,2.90
2023-02-28T18:11:18.304Z,2.80
2023-02-28T18:13:47.673Z,2.80
2023-02-28T18:16:15.925Z,2.70
2023-02-28T18:18:44.337Z,2.60
2023-02-28T18:21:15.655Z,2.50
2023-02-28T18:23:48.165Z,2.50
2023-02-28T18:26:16.720Z,2.40
2023-02-28T18:28:45.407Z,2.50
2023-02-28T18:31:16.020Z,2.40
2023-02-28T18:33:44.130Z,2.40
2023-02-28T18:36:13.254Z,2.40
2023-02-28T18:38:42.178Z,2.40
2023-02-28T18:41:12.597Z,2.30
2023-02-28T18:43:40.922Z,2.30
2023-02-28T18:46:11.358Z,2.20
2023-02-28T18:48:40.500Z,2.20
2023-02-28T18:51:09.385Z,2.10
2023-02-28T18:53:40.048Z,2.10
2023-02-28T18:56:11.274Z,2.00
2023-02-28T18:58:39.235Z,2.00
2023-02-28T19:01:16.894Z,1.90
2023-02-28T19:03:45.161Z,1.90
2023-02-28T19:06:13.416Z,1.80
2023-02-28T19:08:43.017Z,1.80
2023-02-28T19:11:11.908Z,1.70
2023-02-28T19:13:39.757Z,1.60
2023-02-28T19:16:09.186Z,1.60
2023-02-28T19:18:37.712Z,1.70
2023-02-28T19:21:07.962Z,1.60
2023-02-28T19:23:35.980Z,1.70
2023-02-28T19:26:08.653Z,1.60
2023-02-28T19:28:36.941Z,1.60
2023-02-28T19:31:04.873Z,1.60
2023-02-28T19:33:32.799Z,1.60
2023-02-28T19:36:01.238Z,1.50
2023-02-28T19:38:29.839Z,1.50
2023-02-28T19:41:04.780Z,1.50
2023-02-28T19:43:34.339Z,1.50
2023-02-28T19:46:02.587Z,1.40
2023-02-28T19:48:30.603Z,1.40
2023-02-28T19:50:59.507Z,1.30
2023-02-28T19:53:27.800Z,1.30
2023-02-28T19:55:56.335Z,1.30
2023-02-28T19:58:24.495Z,1.20
2023-02-28T20:00:54.008Z,1.20
2023-02-28T20:03:21.959Z,1.10
2023-02-28T20:06:00.697Z,1.10
2023-02-28T20:08:28.794Z,1.10
2023-02-28T20:10:56.573Z,1.00
2023-02-28T20:13:28.033Z,1.00
2023-02-28T20:16:00.350Z,1.00
2023-02-28T20:18:28.336Z,1.00
2023-02-28T20:20:56.307Z,1.00
2023-02-28T20:23:25.086Z,1.00
2023-02-28T20:25:53.314Z,1.00
2023-02-28T20:28:22.133Z,0.90
2023-02-28T20:30:50.097Z,0.90
2023-02-28T20:33:20.261Z,0.90
2023-02-28T20:35:49.171Z,0.90
2023-02-28T20:38:17.077Z,0.80
2023-02-28T20:40:44.975Z,0.80
2023-02-28T20:43:12.760Z,0.80
2023-02-28T20:45:40.645Z,0.80
2023-02-28T20:48:08.463Z,0.80
2023-02-28T20:50:37.875Z,0.70
2023-02-28T20:53:05.692Z,0.70
2023-02-28T20:55:34.380Z,0.70
2023-02-28T20:58:02.644Z,0.60
2023-02-28T21:00:30.480Z,0.60
2023-02-28T21:02:58.651Z,0.60
2023-02-28T21:05:26.525Z,0.60
2023-02-28T21:07:55.644Z,0.60
2023-02-28T21:10:23.495Z,0.60
2023-02-28T21:12:54.490Z,0.60
2023-02-28T21:15:22.705Z,0.50
2023-02-28T21:17:50.583Z,0.50
2023-02-28T21:20:22.126Z,0.50
2023-02-28T21:22:50.106Z,0.50
2023-02-28T21:25:19.470Z,0.40
2023-02-28T21:27:48.029Z,0.40
2023-02-28T21:30:16.077Z,0.40
2023-02-28T21:32:43.912Z,0.40
2023-02-28T21:35:11.727Z,0.30
2023-02-28T21:37:39.974Z,0.30
2023-02-28T21:40:09.300Z,0.30
2023-02-28T21:42:38.555Z,0.30
2023-02-28T21:45:07.388Z,0.30
2023-02-28T21:47:36.096Z,0.20
2023-02-28T21:50:03.954Z,0.30
2023-02-28T21:52:31.772Z,0.20
2023-02-28T21:54:59.561Z,0.20
2023-02-28T21:57:27.552Z,0.20
2023-02-28T21:59:56.854Z,0.10
2023-02-28T22:02:24.893Z,0.10
2023-02-28T22:04:53.323Z,0.10
2023-02-28T22:07:21.173Z,0.10
2023-02-28T22:09:49.065Z,0.10
2023-02-28T22:12:16.934Z,0.00
2023-02-28T22:14:46.038Z,0.00
2023-02-28T22:17:15.215Z,0.00
2023-02-28T22:19:43.494Z,0.00
2023-02-28T22:22:11.270Z,0.00
2023-02-28T22:24:39.363Z,0.00
2023-02-28T22:27:07.341Z,0.00
2023-02-28T22:29:35.216Z,0.00
2023-02-28T22:32:03.238Z,0.00
2023-02-28T22:34:32.486Z,0.00
2023-02-28T22:37:00.294Z,0.00
2023-02-28T22:39:28.156Z,0.00
2023-02-28T22:41:56.599Z,-0.10
2023-02-28T22:44:24.476Z,-0.10
2023-02-28T22:46:54.076Z,-0.10
2023-02-28T22:49:22.142Z,-0.10
2023-02-28T22:51:51.362Z,-0.20
2023-02-28T22:54:19.245Z,-0.10
2023-02-28T22:56:47.086Z,-0.20
2023-02-28T22:59:15.601Z,-0.20
2023-02-28T23:01:44.626Z,-0.20
2023-02-28T23:04:13.541Z,-0.20
2023-02-28T23:06:43.515Z,-0.30
2023-02-28T23:09:17.702Z,-0.30
2023-02-28T23:11:47.309Z,-0.30
2023-02-28T23:14:16.912Z,-0.30
2023-02-28T23:16:46.503Z,-0.40
2023-02-28T23:19:16.775Z,-0.30
2023-02-28T23:21:45.311Z,-0.40
2023-02-28T23:24:16.479Z,-0.30
2023-02-28T23:26:45.942Z,-0.40
2023-02-28T23:29:15.914Z,-0.40
2023-02-28T23:31:44.304Z,-0.40
2023-02-28T23:34:12.886Z,-0.40
2023-02-28T23:36:45.824Z,-0.40
2023-02-28T23:39:17.508Z,-0.50
2023-02-28T23:41:45.800Z,-0.50
2023-02-28T23:44:16.700Z,-0.50
2023-02-28T23:46:45.618Z,-0.50
2023-02-28T23:49:13.531Z,-0.50
2023-02-28T23:51:41.424Z,-0.50
2023-02-28T23:54:09.906Z,-0.50
2023-02-28T23:56:39.279Z,-0.50
2023-02-28T23:59:07.334Z,-0.50
